Waynesville, NC

4:04 AM EDT on August 31, 2014 (GMT -0400)
Franklin | Change Station
CLOSE
Current Station
Airport
Location: Franklin,
Elevation: 2021 ft
Nearby Weather Stations

Elev 2021 ft 35.22 °N, 83.42 °W | Updated 9 minutes ago

Rain
Rain
64 °F
Feels Like 64 °F
N
0
Wind Variable Wind from North
Gusts 7 mph

Today
High -- | Low -- °F
--% Chance of Precip.
Yesterday
High -- | Low -- °F
Precip. -- in
7:03 AM 8:00 PM
Waxing Crescent, 28% visible
Pressure 30.23 in
Visibility 7.0 miles
Clouds
Dew Point 64 °F
Humidity 100%
Rainfall 0.48 in
Snow Depth Not available.
UV Not available.
Pollen 9.10 out of 12
Ozone Good
PM2.5 Moderate
Flu Activity Not available.
METAR K1A5 310755Z AUTO 00000KT 7SM 18/18 A3023 RMK AO2 P0001 T01800180

More Conditions Fewer Conditions

Pressure 30.23 in
Visibility 7.0 miles
Clouds
Dew Point 64 °F
Humidity 100%
Rainfall 0.48 in
Snow Depth Not available.
UV Not available.
Pollen 9.10 out of 12
Ozone Good
PM2.5 Moderate
Flu Activity Not available.
METAR K1A5 310755Z AUTO 00000KT 7SM 18/18 A3023 RMK AO2 P0001 T01800180

More Conditions Fewer Conditions

10-Day Weather Forecast

Almanac

Astronomy

Aug. 31, 2014 Rise Set
Actual Time 7:03 AM EDT 8:00 PM EDT
Civil Twilight 6:37 AM EDT 8:26 PM EDT
Nautical Twilight 6:06 AM EDT 8:57 PM EDT
Astronomical Twilight 5:34 AM EDT 9:29 PM EDT
Moon 12:36 PM EDT 11:27 PM EDT
Length of Visible Light 13h 49m
Length of Day
12h 57m
Tomorrow will be 2m 9s shorter.
Waxing Crescent, 28% of the Moon is Illuminated
Today
Waxing Crescent
Sep 2
First Quarter
Sep 8
Full
Sep 15
Last Quarter
Sep 24
New

Today's Extremes

State Highs State Lows

Community

WunderPhotos

Upload Photos

1,748,816 photos uploaded!

Nearby

Air Quality

  Air Quality AQ Index Pollutant
Yesterday Moderate
PM2.5
Yesterday Good
OZONE
Current Moderate
PM2.5
Current Good
OZONE
Sunday Good
PM2.5
Sunday Good
OZONE
Monday Good
PM2.5
Monday Good
OZONE
Tuesday Good
PM2.5
Tuesday Good
OZONE

Snow Depth

Station Depth Elevation
No new snow has been reported.

Earthquake Activity

City Distance Mag. Time & Date
No recent earthquake activity has been reported nearby.
Minimum magnitude displayed is 2.5.

Coastal Water Temperatures

Place Temperature
No Stations Reporting

Nearby Weather Stations